Time;durP1;ratioP1;P1;durP2;ratioP2;P2;SDS_P1;SDS_P2;PMS_P1;PMS_P2;Temp;Humidity;BMP_temperature;BMP_pressure;BME280_temperature;BME280_humidity;BME280_pressure;Samples;Min_cycle;Max_cycle;Signal;HPM_P1;HPM_P2
2022/06/20 00:00:54;;;;;;;12.43;4.82;;;;;;;23.02;82.08;99534.72;21110796;22;20492;-68
2022/06/20 00:10:56;;;;;;;12.95;4.78;;;;;;;23.13;81.92;99554.38;20984114;28;20485;-68
2022/06/20 00:20:58;;;;;;;13.60;4.70;;;;;;;23.21;80.70;99555.44;20985931;28;20059;-68
2022/06/20 00:31:00;;;;;;;13.95;5.18;;;;;;;22.97;83.20;99549.44;20984268;28;20044;-68
2022/06/20 00:41:09;;;;;;;10.23;4.90;;;;;;;22.75;84.50;99543.09;20984076;28;20048;-68
2022/06/20 00:51:34;;;;;;;12.13;5.03;;;;;;;22.74;85.43;99562.75;20983983;28;20114;-68
2022/06/20 01:01:41;;;;;;;12.02;4.93;;;;;;;22.70;85.42;99544.44;20982821;28;20102;-68
2022/06/20 01:11:46;;;;;;;11.30;5.35;;;;;;;22.59;86.13;99555.97;20983760;28;20202;-68
2022/06/20 01:21:48;;;;;;;10.90;5.15;;;;;;;22.12;88.28;99557.84;20987221;28;20055;-67
2022/06/20 01:31:54;;;;;;;16.88;6.15;;;;;;;21.92;89.56;99559.34;20997787;28;20688;-68
2022/06/20 01:52:26;;;;;;;15.85;5.65;;;;;;;21.41;92.79;99577.41;20996710;28;20048;-68
2022/06/20 02:02:33;;;;;;;12.02;5.63;;;;;;;21.42;92.54;99595.13;20995717;28;20446;-68
2022/06/20 02:12:40;;;;;;;16.02;6.03;;;;;;;21.25;92.03;99606.94;20994506;28;20051;-70
2022/06/20 02:22:43;;;;;;;17.83;5.93;;;;;;;21.08;91.90;99641.91;20994589;28;20052;-71
2022/06/20 02:32:58;;;;;;;13.10;4.68;;;;;;;21.33;87.08;99689.84;20992394;28;20086;-70
2022/06/20 02:43:10;;;;;;;;;;;;;;;21.39;84.91;99707.19;20993309;28;20048;-70
2022/06/20 02:53:30;;;;;;;10.90;4.55;;;;;;;21.38;84.69;99703.69;20992908;28;19924;-70
2022/06/20 03:03:37;;;;;;;11.38;4.13;;;;;;;21.17;85.87;99719.31;20990678;28;20059;-69
2022/06/20 03:13:41;;;;;;;12.50;4.60;;;;;;;20.72;87.54;99726.88;20990398;28;20048;-69
2022/06/20 03:23:42;;;;;;;16.13;4.50;;;;;;;20.53;87.34;99757.50;20989665;28;20052;-70
2022/06/20 03:33:44;;;;;;;13.70;4.10;;;;;;;20.36;86.78;99769.22;20988071;28;20037;-70
2022/06/20 03:43:52;;;;;;;12.32;4.22;;;;;;;20.09;87.83;99759.47;20988503;28;20131;-69
2022/06/20 03:54:04;;;;;;;13.02;3.50;;;;;;;19.94;86.87;99729.41;20987452;28;20464;-70
2022/06/20 04:04:42;;;;;;;14.77;3.25;;;;;;;19.73;86.92;99715.72;20944681;28;20049;-70
2022/06/20 04:15:25;;;;;;;12.32;3.40;;;;;;;19.89;86.25;99736.84;20902632;28;20045;-70
2022/06/20 04:25:42;;;;;;;12.32;3.22;;;;;;;20.34;83.38;99736.56;20873846;28;20497;-69
2022/06/20 04:36:01;;;;;;;12.00;3.25;;;;;;;20.45;83.54;99736.69;20901618;28;20801;-69
2022/06/20 04:46:17;;;;;;;15.30;3.17;;;;;;;20.54;82.90;99754.72;20901790;28;20049;-70
2022/06/20 04:56:26;;;;;;;12.57;3.10;;;;;;;20.53;84.36;99774.31;20910205;28;20507;-70
2022/06/20 05:06:31;;;;;;;7.80;2.50;;;;;;;20.73;83.34;99784.44;20926412;28;20067;-70
2022/06/20 05:16:42;;;;;;;12.50;3.53;;;;;;;21.11;81.58;99794.28;20928849;28;20057;-70
2022/06/20 05:26:47;;;;;;;9.57;2.78;;;;;;;21.32;80.63;99796.44;20928238;28;20064;-70
2022/06/20 05:37:00;;;;;;;13.00;3.47;;;;;;;21.44;79.08;99809.75;20926936;28;20056;-69
2022/06/20 05:47:11;;;;;;;13.18;3.53;;;;;;;21.27;82.47;99821.56;20927475;28;20052;-69
2022/06/20 05:57:17;;;;;;;13.40;3.20;;;;;;;20.88;83.46;99813.63;20926426;28;20460;-69
2022/06/20 06:07:26;;;;;;;12.20;3.10;;;;;;;20.97;82.99;99843.13;20924961;28;20079;-68
2022/06/20 06:17:38;;;;;;;12.68;3.50;;;;;;;20.89;83.57;99855.28;20940493;28;20111;-68
2022/06/20 06:27:47;;;;;;;10.18;3.47;;;;;;;20.99;83.73;99894.47;20911961;28;20457;-69
2022/06/20 06:38:00;;;;;;;;;;;;;;;21.16;82.37;99898.66;20952243;28;20045;-69
2022/06/20 06:48:16;;;;;;;17.60;3.60;;;;;;;21.94;80.10;99908.41;20938927;28;19951;-70
2022/06/20 06:58:47;;;;;;;13.48;3.50;;;;;;;22.20;75.82;99939.44;20933006;28;20055;-69
2022/06/20 07:08:59;;;;;;;12.15;3.10;;;;;;;23.05;71.40;99907.47;20915096;28;20056;-69
2022/06/20 07:19:01;;;;;;;7.15;3.22;;;;;;;23.36;67.90;99887.28;20970187;28;20060;-69
2022/06/20 07:29:11;;;;;;;9.38;3.47;;;;;;;23.57;68.07;99916.81;20896158;28;20080;-69
2022/06/20 07:39:27;;;;;;;10.10;3.50;;;;;;;23.30;73.57;99919.81;20929537;28;20154;-70
2022/06/20 07:49:35;;;;;;;15.77;3.60;;;;;;;23.48;72.03;99898.84;20978964;28;20040;-71
2022/06/20 07:59:43;;;;;;;9.25;3.25;;;;;;;23.91;72.50;99882.16;20977699;28;20059;-69
2022/06/20 08:10:02;;;;;;;9.48;4.05;;;;;;;23.74;73.10;99892.34;20974037;28;20135;-68
2022/06/20 08:20:30;;;;;;;9.15;3.53;;;;;;;23.68;82.70;99882.16;20894645;28;20088;-67
2022/06/20 08:30:36;;;;;;;9.25;3.40;;;;;;;24.43;80.23;99876.13;20892087;28;20405;-68
2022/06/20 08:40:56;;;;;;;15.18;4.18;;;;;;;24.58;69.94;99895.47;20893547;28;20094;-68
2022/06/20 08:51:19;;;;;;;11.23;3.85;;;;;;;24.71;71.40;99909.53;20892592;28;20053;-67
2022/06/20 09:01:58;;;;;;;12.55;4.28;;;;;;;24.82;71.68;99936.28;20891369;28;20052;-67
2022/06/20 09:12:23;;;;;;;13.07;5.20;;;;;;;25.45;73.50;99927.50;20937687;28;20084;-63
2022/06/20 09:22:30;;;;;;;12.73;5.88;;;;;;;25.37;75.43;99936.19;20973038;28;20048;-64
2022/06/20 09:32:34;;;;;;;16.92;7.30;;;;;;;25.83;73.49;99918.88;20973349;28;20584;-65
2022/06/20 09:42:59;;;;;;;17.90;6.88;;;;;;;25.33;75.79;99929.38;20977030;28;20091;-65
2022/06/20 09:53:24;;;;;;;18.90;7.03;;;;;;;25.66;70.08;99947.13;20988190;28;20415;-65
2022/06/20 10:03:49;;;;;;;16.73;6.00;;;;;;;26.17;69.05;99932.03;20955742;28;20499;-65
2022/06/20 10:14:10;;;;;;;12.18;6.05;;;;;;;26.96;65.62;99924.00;20940012;28;20484;-65
2022/06/20 10:24:22;;;;;;;13.50;5.57;;;;;;;26.58;65.46;99941.78;20985786;28;20140;-63
2022/06/20 10:34:39;;;;;;;12.93;5.32;;;;;;;26.23;65.74;99936.84;20984782;28;20044;-63
2022/06/20 10:44:57;;;;;;;9.38;4.97;;;;;;;26.99;64.85;99942.56;20984616;28;20060;-64
2022/06/20 10:55:29;;;;;;;12.73;4.72;;;;;;;26.44;63.88;99969.00;20982895;28;20056;-63
2022/06/20 11:05:39;;;;;;;11.55;4.47;;;;;;;24.92;72.99;100000.66;20976066;28;20118;-63
2022/06/20 11:16:01;;;;;;;12.98;4.95;;;;;;;24.41;78.92;100027.13;20930307;28;20052;-64
2022/06/20 11:26:34;;;;;;;14.32;4.38;;;;;;;23.99;82.59;100042.84;20898232;28;20440;-64
2022/06/20 11:37:13;;;;;;;11.70;4.38;;;;;;;24.26;83.09;100051.41;20896895;28;20052;-65
2022/06/20 11:47:36;;;;;;;11.02;3.55;;;;;;;23.83;86.79;100080.59;20896426;28;20064;-65
2022/06/20 11:57:46;;;;;;;11.05;3.60;;;;;;;23.76;83.72;100084.69;20896324;28;20075;-67
2022/06/20 12:08:18;;;;;;;7.97;3.65;;;;;;;24.55;80.49;100107.16;20893457;28;20555;-66
2022/06/20 12:18:19;;;;;;;7.35;3.00;;;;;;;23.80;80.55;100123.59;20967634;28;20052;-64
2022/06/20 12:28:25;;;;;;;7.43;2.40;;;;;;;22.66;84.39;100154.09;20976388;28;20052;-67
2022/06/20 12:38:40;;;;;;;5.30;2.50;;;;;;;22.45;81.91;100154.63;20975693;28;20404;-64
2022/06/20 12:49:04;;;;;;;3.92;2.50;;;;;;;21.67;85.24;100169.69;20975561;28;20125;-65
2022/06/20 12:59:25;;;;;;;5.47;3.20;;;;;;;21.34;86.40;100181.56;20975444;28;20055;-65
2022/06/20 13:09:35;;;;;;;6.65;3.25;;;;;;;21.31;86.06;100180.88;20966207;28;20106;-69
2022/06/20 13:20:04;;;;;;;6.53;2.95;;;;;;;21.58;84.16;100205.75;20980783;28;20051;-69
2022/06/20 13:30:27;;;;;;;9.07;3.55;;;;;;;21.20;85.21;100211.69;20976914;28;20045;-68
2022/06/20 13:40:31;;;;;;;9.63;4.10;;;;;;;21.30;82.11;100198.66;20989850;28;20048;-70
2022/06/20 13:50:40;;;;;;;7.18;4.40;;;;;;;21.43;80.46;100182.78;20988634;28;20799;-68
2022/06/20 14:00:42;;;;;;;7.30;4.68;;;;;;;21.68;79.91;100176.72;20987334;28;20036;-67
2022/06/20 14:11:08;;;;;;;7.93;4.63;;;;;;;22.22;77.56;100158.88;20986394;28;20054;-67
2022/06/20 14:21:10;;;;;;;9.07;5.15;;;;;;;22.16;75.22;100156.63;20986755;28;20470;-67
2022/06/20 14:31:27;;;;;;;10.27;4.97;;;;;;;21.17;79.84;100193.22;20984047;28;20072;-69
2022/06/20 14:41:39;;;;;;;10.27;5.72;;;;;;;20.75;80.94;100179.00;20985152;28;20056;-67
2022/06/20 14:51:45;;;;;;;7.72;4.80;;;;;;;21.71;74.29;100173.84;20983831;28;20378;-69
2022/06/20 15:01:52;;;;;;;8.20;4.30;;;;;;;22.11;73.29;100174.75;20982691;28;20056;-67
2022/06/20 15:12:12;;;;;;;5.85;2.83;;;;;;;22.14;71.21;100177.22;20961134;28;20481;-67
2022/06/20 15:22:29;;;;;;;6.60;3.38;;;;;;;21.29;73.48;100182.78;20898747;28;20087;-68
2022/06/20 15:32:39;;;;;;;7.57;2.97;;;;;;;21.11;75.02;100196.28;20897033;28;20053;-68
2022/06/20 15:42:51;;;;;;;6.50;2.25;;;;;;;21.35;71.62;100203.72;20895554;28;20055;-68
2022/06/20 15:53:11;;;;;;;4.65;2.38;;;;;;;20.55;74.29;100203.28;20896073;28;20049;-70
2022/06/20 16:03:56;;;;;;;3.78;1.85;;;;;;;20.19;74.34;100206.31;20904038;28;20088;-67
2022/06/20 16:13:59;;;;;;;3.17;1.80;;;;;;;21.09;67.51;100211.50;20931740;28;20052;-67
2022/06/20 16:24:06;;;;;;;3.35;1.52;;;;;;;21.12;66.36;100213.97;20962736;28;20055;-68
2022/06/20 16:34:33;;;;;;;7.95;1.67;;;;;;;21.50;63.67;100229.38;20973442;28;20045;-68
2022/06/20 16:44:47;;;;;;;3.53;1.55;;;;;;;20.67;69.27;100215.00;20974841;28;20407;-68
2022/06/20 16:54:55;;;;;;;11.17;1.83;;;;;;;20.50;67.12;100226.63;20974177;28;20040;-68
2022/06/20 17:05:09;;;;;;;2.67;1.00;;;;;;;21.10;62.14;100237.19;20971914;28;20075;-68
2022/06/20 17:15:34;;;;;;;2.10;0.95;;;;;;;21.41;59.60;100241.47;20919600;28;20057;-69
2022/06/20 17:26:04;;;;;;;3.60;0.83;;;;;;;20.40;57.60;100257.34;20971308;28;20421;-69
2022/06/20 17:36:26;;;;;;;2.58;0.98;;;;;;;20.53;53.13;100265.50;20973862;28;20554;-70
2022/06/20 17:46:50;;;;;;;3.17;0.60;;;;;;;19.90;51.62;100269.09;20972907;28;20102;-67
2022/06/20 17:57:26;;;;;;;3.53;0.80;;;;;;;19.72;51.55;100285.13;20970508;28;20412;-67
2022/06/20 18:07:32;;;;;;;2.97;0.73;;;;;;;19.66;49.04;100298.75;20978826;28;20060;-70
2022/06/20 18:17:59;;;;;;;4.82;1.38;;;;;;;19.19;43.99;100293.31;20985704;28;20052;-69
2022/06/20 18:28:04;;;;;;;3.35;1.10;;;;;;;18.53;46.94;100320.53;20984477;28;20132;-67
2022/06/20 18:38:09;;;;;;;3.90;0.90;;;;;;;18.95;46.72;100301.63;20983974;28;20501;-65
2022/06/20 18:48:36;;;;;;;;;;;;;;;18.56;49.22;100325.72;20984324;28;20461;-64
2022/06/20 18:59:01;;;;;;;6.05;1.40;;;;;;;18.06;54.11;100333.47;20984678;28;19920;-64
2022/06/20 19:09:40;;;;;;;3.50;0.90;;;;;;;18.18;56.87;100335.53;20981819;28;20056;-65
2022/06/20 19:20:05;;;;;;;3.17;1.05;;;;;;;17.89;60.69;100351.03;20898408;28;20501;-64
2022/06/20 19:30:11;;;;;;;2.93;1.13;;;;;;;17.57;63.39;100348.97;20897489;28;20103;-65
2022/06/20 19:40:31;;;;;;;3.67;1.27;;;;;;;17.21;66.08;100362.06;20896540;28;20416;-65
2022/06/20 19:50:39;;;;;;;3.50;1.30;;;;;;;17.33;66.53;100372.94;20895544;28;20068;-65
2022/06/20 20:00:44;;;;;;;6.97;1.50;;;;;;;17.00;68.29;100377.91;20894381;28;20049;-66
2022/06/20 20:10:58;;;;;;;5.38;1.73;;;;;;;16.94;65.44;100375.53;20906085;28;20472;-66
2022/06/20 20:21:02;;;;;;;5.53;1.63;;;;;;;16.78;65.64;100390.34;20977370;28;20056;-66
2022/06/20 20:31:17;;;;;;;4.77;1.47;;;;;;;16.54;67.91;100393.03;20975942;28;20043;-66
2022/06/20 20:41:35;;;;;;;6.53;1.70;;;;;;;16.61;67.91;100391.84;20975846;28;20052;-68
2022/06/20 20:51:38;;;;;;;5.70;1.98;;;;;;;16.46;69.34;100378.38;20974595;28;20078;-68
2022/06/20 21:01:43;;;;;;;5.55;1.88;;;;;;;16.39;71.27;100383.06;20946080;28;20052;-70
2022/06/20 21:11:45;;;;;;;5.78;1.85;;;;;;;16.22;73.43;100378.44;20928677;28;20378;-68
2022/06/20 21:21:49;;;;;;;6.20;1.83;;;;;;;16.07;75.87;100381.69;20919242;28;20558;-68
2022/06/20 21:31:55;;;;;;;7.10;2.00;;;;;;;15.92;76.74;100383.13;20899889;28;20040;-70
2022/06/20 21:42:01;;;;;;;5.22;2.13;;;;;;;15.56;80.24;100388.81;20898197;28;20053;-67
2022/06/20 21:52:12;;;;;;;4.38;2.05;;;;;;;15.23;83.36;100382.97;20906781;28;20095;-67
2022/06/20 22:12:45;;;;;;;6.57;2.55;;;;;;;14.83;86.56;100372.94;20995064;28;20053;-67
2022/06/20 22:22:46;;;;;;;7.43;2.60;;;;;;;14.80;86.72;100370.41;20994654;28;20044;-67
2022/06/20 22:32:48;;;;;;;6.32;2.60;;;;;;;14.75;87.07;100369.69;20993245;28;20040;-67
2022/06/20 22:42:53;;;;;;;6.45;3.10;;;;;;;14.59;88.13;100364.06;20993326;28;20083;-67
2022/06/20 22:52:58;;;;;;;6.82;3.20;;;;;;;14.39;89.56;100367.31;20990514;28;20051;-67
2022/06/20 23:03:07;;;;;;;9.30;3.60;;;;;;;14.44;90.06;100375.09;20989525;28;20048;-67
2022/06/20 23:13:13;;;;;;;7.35;3.40;;;;;;;14.37;90.19;100369.13;20989714;28;20041;-67
2022/06/20 23:23:14;;;;;;;7.65;3.17;;;;;;;14.11;92.21;100381.34;20990503;28;20052;-67
2022/06/20 23:33:16;;;;;;;9.00;3.97;;;;;;;14.07;92.30;100386.75;20988309;28;20098;-67
2022/06/20 23:43:21;;;;;;;7.10;3.63;;;;;;;14.10;92.62;100390.16;20987062;28;20054;-66
2022/06/20 23:53:23;;;;;;;6.25;3.33;;;;;;;14.12;93.45;100385.69;20986792;28;20059;-66
